Time;durP1;ratioP1;P1;durP2;ratioP2;P2;SDS_P1;SDS_P2;PMS_P1;PMS_P2;Temp;Humidity;BMP_temperature;BMP_pressure;BME280_temperature;BME280_humidity;BME280_pressure;Samples;Min_cycle;Max_cycle;Signal;HPM_P1;HPM_P2
2021/06/16 00:01:47;;;;;;;9.93;8.82;;;;;;;;;;5111402;28;20044;-59
2021/06/16 00:04:12;;;;;;;10.43;9.45;;;;;;;;;;5109214;28;20322;-52
2021/06/16 00:06:38;;;;;;;10.93;9.88;;;;;;;;;;5111404;28;20466;-52
2021/06/16 00:09:04;;;;;;;10.45;9.32;;;;;;;;;;5107832;28;20023;-55
2021/06/16 00:11:29;;;;;;;13.43;9.75;;;;;;;;;;5094591;28;20024;-54
2021/06/16 00:13:55;;;;;;;11.48;10.13;;;;;;;;;;5099845;28;20421;-56
2021/06/16 00:16:20;;;;;;;11.88;10.65;;;;;;;;;;5099204;28;20454;-55
2021/06/16 00:18:45;;;;;;;11.60;10.38;;;;;;;;;;5116134;28;20034;-56
2021/06/16 00:21:14;;;;;;;10.40;9.40;;;;;;;;;;5113212;28;20027;-53
2021/06/16 00:23:39;;;;;;;13.38;10.48;;;;;;;;;;5108176;28;20016;-52
2021/06/16 00:26:05;;;;;;;10.25;9.23;;;;;;;;;;5114823;28;20469;-55
2021/06/16 00:28:30;;;;;;;11.60;9.73;;;;;;;;;;5114052;28;20027;-55
2021/06/16 00:30:55;;;;;;;11.13;9.55;;;;;;;;;;5109091;28;20351;-54
2021/06/16 00:33:21;;;;;;;10.40;9.30;;;;;;;;;;5094613;28;20046;-55
2021/06/16 00:35:46;;;;;;;10.70;9.60;;;;;;;;;;5102277;27;20031;-56
2021/06/16 00:38:11;;;;;;;11.90;10.65;;;;;;;;;;5105892;28;20512;-55
2021/06/16 00:40:37;;;;;;;11.77;10.38;;;;;;;;;;5113025;28;20370;-55
2021/06/16 00:43:02;;;;;;;12.55;11.25;;;;;;;;;;5112220;28;20024;-53
2021/06/16 00:45:28;;;;;;;11.60;10.40;;;;;;;;;;5100566;28;20028;-56
2021/06/16 00:47:57;;;;;;;12.65;11.45;;;;;;;;;;5102495;28;20030;-55
2021/06/16 00:50:38;;;;;;;11.95;10.75;;;;;;;;;;5113588;28;20485;-56
2021/06/16 00:53:04;;;;;;;11.80;10.60;;;;;;;;;;5105343;28;20508;-57
2021/06/16 00:55:29;;;;;;;12.00;10.77;;;;;;;;;;5108645;28;20062;-57
2021/06/16 00:57:55;;;;;;;12.05;10.95;;;;;;;;;;5114707;28;20466;-51
2021/06/16 01:00:22;;;;;;;12.15;10.95;;;;;;;;;;5112481;28;20055;-55
2021/06/16 01:02:47;;;;;;;12.48;11.18;;;;;;;;;;5110912;28;20484;-53
2021/06/16 01:05:13;;;;;;;12.63;11.43;;;;;;;;;;5112778;28;20110;-55
2021/06/16 01:07:40;;;;;;;13.27;11.85;;;;;;;;;;5114170;28;20024;-54
2021/06/16 01:10:06;;;;;;;11.85;10.70;;;;;;;;;;5109816;28;20492;-56
2021/06/16 01:12:39;;;;;;;13.43;10.63;;;;;;;;;;5092471;28;20032;-53
2021/06/16 01:15:09;;;;;;;13.95;11.98;;;;;;;;;;5106797;28;20019;-54
2021/06/16 01:17:36;;;;;;;12.88;11.50;;;;;;;;;;5112621;27;20158;-53
2021/06/16 01:20:08;;;;;;;12.48;11.18;;;;;;;;;;5111613;28;20023;-54
2021/06/16 01:22:52;;;;;;;12.40;11.00;;;;;;;;;;5094724;28;20081;-57
2021/06/16 01:25:21;;;;;;;12.57;11.20;;;;;;;;;;5106735;28;20039;-55
2021/06/16 01:27:46;;;;;;;12.65;11.25;;;;;;;;;;5107658;28;20107;-57
2021/06/16 01:30:12;;;;;;;10.75;9.80;;;;;;;;;;5112757;28;20115;-57
2021/06/16 01:32:37;;;;;;;12.55;11.40;;;;;;;;;;5107629;28;20390;-55
2021/06/16 01:35:03;;;;;;;13.82;12.38;;;;;;;;;;5109431;28;20015;-54
2021/06/16 01:37:28;;;;;;;11.80;10.57;;;;;;;;;;5114780;28;20023;-55
2021/06/16 01:39:55;;;;;;;14.05;11.52;;;;;;;;;;5107924;28;20386;-57
2021/06/16 01:42:21;;;;;;;14.00;12.60;;;;;;;;;;5104463;28;20026;-56
2021/06/16 01:44:49;;;;;;;13.27;11.43;;;;;;;;;;5096417;28;20032;-55
2021/06/16 01:47:15;;;;;;;14.13;12.82;;;;;;;;;;5095190;28;20102;-57
2021/06/16 01:49:41;;;;;;;13.90;12.38;;;;;;;;;;5112680;28;20466;-53
2021/06/16 01:52:07;;;;;;;13.32;11.95;;;;;;;;;;5096078;28;20024;-55
2021/06/16 01:54:34;;;;;;;12.68;11.35;;;;;;;;;;5095347;28;20024;-54
2021/06/16 01:57:00;;;;;;;13.38;11.25;;;;;;;;;;5110643;28;20042;-56
2021/06/16 01:59:25;;;;;;;13.15;11.77;;;;;;;;;;5109974;28;20047;-55
2021/06/16 02:01:51;;;;;;;12.45;11.25;;;;;;;;;;5112043;28;20022;-54
2021/06/16 02:04:17;;;;;;;12.27;11.18;;;;;;;;;;5109833;28;20024;-52
2021/06/16 02:06:43;;;;;;;14.15;12.70;;;;;;;;;;5109618;28;20390;-55
2021/06/16 02:09:09;;;;;;;14.20;11.65;;;;;;;;;;5113126;28;20031;-56
2021/06/16 02:11:38;;;;;;;14.77;13.23;;;;;;;;;;5110525;28;20031;-56
2021/06/16 02:14:04;;;;;;;12.80;11.30;;;;;;;;;;5100961;28;20023;-56
2021/06/16 02:16:38;;;;;;;11.98;10.88;;;;;;;;;;5095748;28;20058;-55
2021/06/16 02:19:08;;;;;;;12.30;11.07;;;;;;;;;;5092981;28;20107;-56
2021/06/16 02:21:33;;;;;;;13.52;12.18;;;;;;;;;;5093960;28;20051;-56
2021/06/16 02:23:59;;;;;;;13.05;11.85;;;;;;;;;;5096795;28;20051;-55
2021/06/16 02:26:24;;;;;;;12.18;11.05;;;;;;;;;;5097843;28;20109;-56
2021/06/16 02:28:50;;;;;;;13.52;12.18;;;;;;;;;;5093407;28;20019;-52
2021/06/16 02:31:15;;;;;;;12.52;11.43;;;;;;;;;;5104516;28;20749;-55
2021/06/16 02:33:40;;;;;;;13.70;12.32;;;;;;;;;;5107783;28;20216;-56
2021/06/16 02:36:08;;;;;;;13.57;11.60;;;;;;;;;;5112639;28;20031;-57
2021/06/16 02:38:34;;;;;;;13.93;12.52;;;;;;;;;;5109847;28;20462;-56
2021/06/16 02:41:00;;;;;;;13.52;11.88;;;;;;;;;;5111475;28;20098;-55
2021/06/16 02:43:25;;;;;;;13.85;12.55;;;;;;;;;;5104027;28;20506;-56
2021/06/16 02:45:51;;;;;;;13.27;11.73;;;;;;;;;;5095357;28;20023;-56
2021/06/16 02:48:17;;;;;;;12.95;11.65;;;;;;;;;;5092913;28;20051;-54
2021/06/16 02:50:44;;;;;;;14.55;13.15;;;;;;;;;;5099829;28;20032;-55
2021/06/16 02:53:14;;;;;;;15.57;14.10;;;;;;;;;;5107638;28;20019;-56
2021/06/16 02:55:39;;;;;;;16.65;14.40;;;;;;;;;;5112293;28;20019;-54
2021/06/16 02:58:05;;;;;;;18.00;15.25;;;;;;;;;;5104487;28;20022;-56
2021/06/16 03:00:31;;;;;;;16.88;14.95;;;;;;;;;;5109318;28;20451;-54
2021/06/16 03:02:57;;;;;;;17.55;15.00;;;;;;;;;;5110135;28;20026;-55
2021/06/16 03:05:24;;;;;;;17.75;15.07;;;;;;;;;;5109478;28;20026;-55
2021/06/16 03:07:50;;;;;;;16.45;14.05;;;;;;;;;;5108878;28;20088;-53
2021/06/16 03:10:17;;;;;;;17.48;15.68;;;;;;;;;;5102672;28;20031;-55
2021/06/16 03:12:43;;;;;;;17.00;15.40;;;;;;;;;;5104522;28;20016;-56
2021/06/16 03:15:09;;;;;;;16.48;14.77;;;;;;;;;;5103975;28;20035;-56
2021/06/16 03:17:34;;;;;;;16.88;15.02;;;;;;;;;;5108421;28;20041;-56
2021/06/16 03:20:00;;;;;;;15.00;13.40;;;;;;;;;;5093934;28;20016;-56
2021/06/16 03:22:25;;;;;;;15.40;13.35;;;;;;;;;;5092792;28;20252;-54
2021/06/16 03:24:51;;;;;;;14.90;13.32;;;;;;;;;;5111466;28;20026;-54
2021/06/16 03:27:19;;;;;;;14.55;13.07;;;;;;;;;;5109775;28;20458;-53
2021/06/16 03:29:44;;;;;;;14.60;13.10;;;;;;;;;;5095159;28;20019;-56
2021/06/16 03:32:10;;;;;;;15.15;13.52;;;;;;;;;;5109192;28;20095;-53
2021/06/16 03:34:36;;;;;;;14.57;13.02;;;;;;;;;;5103761;28;20024;-56
2021/06/16 03:37:02;;;;;;;13.75;12.27;;;;;;;;;;5103970;28;20041;-57
2021/06/16 03:39:28;;;;;;;15.02;12.90;;;;;;;;;;5104203;28;20031;-57
2021/06/16 03:41:53;;;;;;;13.60;12.20;;;;;;;;;;5112909;28;20070;-55
2021/06/16 03:44:19;;;;;;;14.68;13.15;;;;;;;;;;5098579;28;20044;-56
2021/06/16 03:46:45;;;;;;;13.68;12.32;;;;;;;;;;5098997;28;20094;-56
2021/06/16 03:49:12;;;;;;;14.68;13.02;;;;;;;;;;5110869;28;20023;-56
2021/06/16 03:51:40;;;;;;;14.40;13.05;;;;;;;;;;5111268;28;20016;-55
2021/06/16 03:54:11;;;;;;;13.95;12.60;;;;;;;;;;5109333;28;20553;-55
2021/06/16 03:56:40;;;;;;;13.32;11.98;;;;;;;;;;5107752;28;20034;-52
2021/06/16 03:59:05;;;;;;;13.70;12.27;;;;;;;;;;5091482;28;20108;-55
2021/06/16 04:01:31;;;;;;;13.30;12.00;;;;;;;;;;5095682;28;20115;-55
2021/06/16 04:03:56;;;;;;;13.30;11.90;;;;;;;;;;5099012;28;20030;-56
2021/06/16 04:06:21;;;;;;;13.13;11.82;;;;;;;;;;5101632;28;20448;-55
2021/06/16 04:08:47;;;;;;;15.00;12.18;;;;;;;;;;5096350;28;20032;-53
2021/06/16 04:11:12;;;;;;;13.60;12.38;;;;;;;;;;5109251;28;20440;-55
2021/06/16 04:13:38;;;;;;;12.98;11.68;;;;;;;;;;5108434;28;20023;-55
2021/06/16 04:16:03;;;;;;;13.88;12.25;;;;;;;;;;5101831;28;20024;-56
2021/06/16 04:18:30;;;;;;;13.63;12.23;;;;;;;;;;5108960;28;20107;-55
2021/06/16 04:20:55;;;;;;;13.73;12.35;;;;;;;;;;5110361;28;20022;-56
2021/06/16 04:23:20;;;;;;;13.63;11.93;;;;;;;;;;5108231;28;20019;-56
2021/06/16 04:25:46;;;;;;;14.77;12.50;;;;;;;;;;5109789;28;20363;-55
2021/06/16 04:28:11;;;;;;;13.65;12.40;;;;;;;;;;5107696;28;20490;-55
2021/06/16 04:30:36;;;;;;;13.00;11.70;;;;;;;;;;5099680;28;20024;-56
2021/06/16 04:33:01;;;;;;;13.98;12.57;;;;;;;;;;5108189;28;20032;-56
2021/06/16 04:35:26;;;;;;;14.13;11.68;;;;;;;;;;5109122;28;20016;-55
2021/06/16 04:37:52;;;;;;;13.20;11.95;;;;;;;;;;5105322;28;20431;-54
2021/06/16 04:40:17;;;;;;;14.48;13.07;;;;;;;;;;5103550;28;20036;-53
2021/06/16 04:42:43;;;;;;;14.88;12.90;;;;;;;;;;5092669;28;20038;-55
2021/06/16 04:45:08;;;;;;;13.90;12.48;;;;;;;;;;5108943;28;20520;-54
2021/06/16 04:47:33;;;;;;;13.45;12.13;;;;;;;;;;5100641;28;20098;-56
2021/06/16 04:49:59;;;;;;;13.43;11.32;;;;;;;;;;5111199;28;20027;-53
2021/06/16 04:52:24;;;;;;;13.38;11.90;;;;;;;;;;5105107;28;20059;-57
2021/06/16 04:54:49;;;;;;;13.63;12.23;;;;;;;;;;5095414;28;20035;-56
2021/06/16 04:57:14;;;;;;;13.50;12.18;;;;;;;;;;5107142;27;20482;-54
2021/06/16 04:59:40;;;;;;;13.00;11.70;;;;;;;;;;5111698;28;20112;-57
2021/06/16 05:02:05;;;;;;;13.70;12.40;;;;;;;;;;5111763;28;20096;-55
2021/06/16 05:04:30;;;;;;;12.60;11.40;;;;;;;;;;5111247;28;20073;-55
2021/06/16 05:06:55;;;;;;;14.43;12.43;;;;;;;;;;5111384;27;20069;-54
2021/06/16 05:09:21;;;;;;;18.45;12.50;;;;;;;;;;5106276;28;20068;-55
2021/06/16 05:11:46;;;;;;;13.15;11.85;;;;;;;;;;5103323;28;20016;-55
2021/06/16 05:14:12;;;;;;;15.70;12.40;;;;;;;;;;5106447;28;20031;-56
2021/06/16 05:16:37;;;;;;;14.10;11.40;;;;;;;;;;5098390;28;20103;-56
2021/06/16 05:19:04;;;;;;;12.27;10.60;;;;;;;;;;5112433;28;20481;-55
2021/06/16 05:21:29;;;;;;;12.60;11.38;;;;;;;;;;5114778;28;20036;-55
2021/06/16 05:23:54;;;;;;;14.63;11.15;;;;;;;;;;5110986;28;20081;-53
2021/06/16 05:26:20;;;;;;;12.07;10.82;;;;;;;;;;5111653;28;20024;-55
2021/06/16 05:28:45;;;;;;;12.10;9.90;;;;;;;;;;5109929;28;20031;-55
2021/06/16 05:31:11;;;;;;;11.85;10.65;;;;;;;;;;5113869;28;20148;-54
2021/06/16 05:33:37;;;;;;;12.40;10.07;;;;;;;;;;5110370;28;20015;-56
2021/06/16 05:36:03;;;;;;;11.15;9.98;;;;;;;;;;5105328;28;20035;-52
2021/06/16 05:38:28;;;;;;;10.90;9.80;;;;;;;;;;5100960;28;20023;-58
2021/06/16 05:40:53;;;;;;;11.05;8.98;;;;;;;;;;5101183;28;20020;-55
2021/06/16 05:43:18;;;;;;;10.85;8.63;;;;;;;;;;5091728;28;20024;-55
2021/06/16 05:45:44;;;;;;;10.07;9.05;;;;;;;;;;5112270;28;20024;-55
2021/06/16 05:48:09;;;;;;;10.57;9.30;;;;;;;;;;5110719;28;20061;-55
2021/06/16 05:50:34;;;;;;;16.80;9.20;;;;;;;;;;5112601;28;20107;-55
2021/06/16 05:52:59;;;;;;;13.52;9.77;;;;;;;;;;5109836;28;20090;-54
2021/06/16 05:55:24;;;;;;;9.75;8.80;;;;;;;;;;5106660;28;20032;-55
2021/06/16 05:57:50;;;;;;;13.15;9.43;;;;;;;;;;5104452;28;20018;-56
2021/06/16 06:00:15;;;;;;;12.48;9.73;;;;;;;;;;5111686;27;20077;-57
2021/06/16 06:02:41;;;;;;;9.05;8.25;;;;;;;;;;5109946;27;20032;-57
2021/06/16 06:05:06;;;;;;;10.20;9.18;;;;;;;;;;5112538;28;20023;-55
2021/06/16 06:07:32;;;;;;;9.48;8.38;;;;;;;;;;5092234;28;20035;-54
2021/06/16 06:09:57;;;;;;;11.13;8.10;;;;;;;;;;5112253;28;20139;-55
2021/06/16 06:12:22;;;;;;;11.48;8.85;;;;;;;;;;5101078;28;20023;-55
2021/06/16 06:14:47;;;;;;;9.32;7.93;;;;;;;;;;5110102;28;20101;-56
2021/06/16 06:17:12;;;;;;;10.48;8.88;;;;;;;;;;5111714;28;20165;-56
2021/06/16 06:19:38;;;;;;;12.27;8.75;;;;;;;;;;5107879;28;20164;-53
2021/06/16 06:22:03;;;;;;;9.93;8.25;;;;;;;;;;5100300;28;20031;-55
2021/06/16 06:24:28;;;;;;;12.20;8.63;;;;;;;;;;5104397;28;20363;-55
2021/06/16 06:26:53;;;;;;;10.17;9.10;;;;;;;;;;5105796;28;20154;-55
2021/06/16 06:29:18;;;;;;;9.55;8.18;;;;;;;;;;5104435;28;20637;-55
2021/06/16 06:31:44;;;;;;;12.45;7.82;;;;;;;;;;5109234;28;20024;-50
2021/06/16 06:34:09;;;;;;;10.85;9.25;;;;;;;;;;5104534;28;20016;-56
2021/06/16 06:36:34;;;;;;;9.52;8.20;;;;;;;;;;5102400;28;20023;-56
2021/06/16 06:39:00;;;;;;;10.88;7.82;;;;;;;;;;5107569;28;20027;-52
2021/06/16 06:41:25;;;;;;;10.40;7.95;;;;;;;;;;5107961;28;20106;-54
2021/06/16 06:43:50;;;;;;;9.32;8.13;;;;;;;;;;5092470;28;20030;-57
2021/06/16 06:46:15;;;;;;;11.63;7.90;;;;;;;;;;5097764;28;20029;-56
2021/06/16 06:48:41;;;;;;;10.02;7.60;;;;;;;;;;5100255;28;20733;-57
2021/06/16 06:51:06;;;;;;;8.98;8.05;;;;;;;;;;5098946;28;20433;-55
2021/06/16 06:53:31;;;;;;;9.35;7.88;;;;;;;;;;5091245;28;20028;-57
2021/06/16 06:55:57;;;;;;;11.73;8.02;;;;;;;;;;5107679;28;20061;-55
2021/06/16 06:58:22;;;;;;;13.82;8.13;;;;;;;;;;5106592;28;20011;-54
2021/06/16 07:00:48;;;;;;;9.48;7.65;;;;;;;;;;5100989;28;20052;-56
2021/06/16 07:03:13;;;;;;;10.05;8.07;;;;;;;;;;5101683;28;20036;-57
2021/06/16 07:05:38;;;;;;;9.67;7.67;;;;;;;;;;5103524;28;20069;-56
2021/06/16 07:08:04;;;;;;;9.32;8.18;;;;;;;;;;5101973;28;20269;-55
2021/06/16 07:10:29;;;;;;;9.80;7.80;;;;;;;;;;5092631;28;20093;-57
2021/06/16 07:12:54;;;;;;;8.52;7.65;;;;;;;;;;5089532;28;20046;-54
2021/06/16 07:15:20;;;;;;;11.27;7.40;;;;;;;;;;5101774;28;20085;-54
2021/06/16 07:17:45;;;;;;;9.07;7.00;;;;;;;;;;5104876;28;20102;-55
2021/06/16 07:20:11;;;;;;;8.75;7.03;;;;;;;;;;5095272;28;20024;-57
2021/06/16 07:22:36;;;;;;;8.27;7.38;;;;;;;;;;5106803;28;20024;-57
2021/06/16 07:25:01;;;;;;;7.00;6.35;;;;;;;;;;5106084;28;20034;-56
2021/06/16 07:27:26;;;;;;;8.30;7.00;;;;;;;;;;5101997;28;20024;-54
2021/06/16 07:29:52;;;;;;;9.57;7.65;;;;;;;;;;5101407;28;20403;-54
2021/06/16 07:32:17;;;;;;;6.67;5.93;;;;;;;;;;5092825;28;20622;-53
2021/06/16 07:34:43;;;;;;;6.60;6.00;;;;;;;;;;5095504;28;20327;-54
2021/06/16 07:37:08;;;;;;;6.97;6.30;;;;;;;;;;5100789;28;20430;-57
2021/06/16 07:39:33;;;;;;;8.23;6.10;;;;;;;;;;5099302;28;20437;-56
2021/06/16 07:41:58;;;;;;;6.13;5.63;;;;;;;;;;5098416;28;20682;-55
2021/06/16 07:44:24;;;;;;;7.20;5.50;;;;;;;;;;5096298;28;20797;-55
2021/06/16 07:46:49;;;;;;;7.82;6.20;;;;;;;;;;5100718;28;20026;-56
2021/06/16 07:49:14;;;;;;;6.65;5.70;;;;;;;;;;5103837;28;20055;-55
2021/06/16 07:51:40;;;;;;;8.48;6.07;;;;;;;;;;5106143;28;20020;-55
2021/06/16 07:54:11;;;;;;;6.38;5.75;;;;;;;;;;5105783;28;20128;-54
2021/06/16 07:56:36;;;;;;;7.28;6.53;;;;;;;;;;5094088;28;20028;-54
2021/06/16 07:59:01;;;;;;;7.70;5.70;;;;;;;;;;5091212;28;20487;-55
2021/06/16 08:01:26;;;;;;;6.07;5.43;;;;;;;;;;5101533;28;20023;-55
2021/06/16 08:03:52;;;;;;;6.47;5.88;;;;;;;;;;5102639;28;20284;-55
2021/06/16 08:06:17;;;;;;;6.85;6.10;;;;;;;;;;5095014;28;20023;-54
2021/06/16 08:08:42;;;;;;;7.28;6.55;;;;;;;;;;5101385;28;20019;-55
2021/06/16 08:11:07;;;;;;;9.25;6.25;;;;;;;;;;5108703;28;20024;-56
2021/06/16 08:13:33;;;;;;;7.65;6.90;;;;;;;;;;5097324;28;20020;-55
2021/06/16 08:15:59;;;;;;;7.65;6.85;;;;;;;;;;5107164;28;20069;-54
2021/06/16 08:18:24;;;;;;;7.43;6.47;;;;;;;;;;5104260;28;20020;-52
2021/06/16 08:20:50;;;;;;;7.68;7.00;;;;;;;;;;5105330;28;20035;-55
2021/06/16 08:23:15;;;;;;;8.80;7.10;;;;;;;;;;5104275;28;20028;-55
2021/06/16 08:25:41;;;;;;;9.32;7.00;;;;;;;;;;5105048;28;20023;-52
2021/06/16 08:28:06;;;;;;;7.70;6.90;;;;;;;;;;5104490;28;20058;-54
2021/06/16 08:30:33;;;;;;;9.17;6.60;;;;;;;;;;5100891;28;20463;-54
2021/06/16 08:32:58;;;;;;;6.85;6.07;;;;;;;;;;5100878;27;20296;-56
2021/06/16 08:35:23;;;;;;;7.93;6.72;;;;;;;;;;5105646;27;20462;-55
2021/06/16 08:37:48;;;;;;;7.35;6.30;;;;;;;;;;5119862;27;20027;-55
2021/06/16 08:40:14;;;;;;;8.40;6.60;;;;;;;;;;5105971;27;20019;-55
2021/06/16 08:42:40;;;;;;;7.03;5.97;;;;;;;;;;5103852;27;20139;-54
2021/06/16 08:45:06;;;;;;;7.75;6.40;;;;;;;;;;5107417;27;20548;-54
2021/06/16 08:47:33;;;;;;;8.23;6.50;;;;;;;;;;5105622;27;20027;-56
2021/06/16 08:50:02;;;;;;;7.75;6.70;;;;;;;;;;5110572;27;20027;-55
2021/06/16 08:52:27;;;;;;;7.00;6.05;;;;;;;;;;5111842;28;20179;-55
2021/06/16 08:54:52;;;;;;;7.60;6.90;;;;;;;;;;5114023;27;20020;-55
2021/06/16 08:57:18;;;;;;;9.17;6.90;;;;;;;;;;5101626;28;20262;-53
2021/06/16 08:59:43;;;;;;;7.53;6.70;;;;;;;;;;5105764;28;20355;-55
2021/06/16 09:02:08;;;;;;;6.65;6.05;;;;;;;;;;5109061;27;20273;-56
2021/06/16 09:04:46;;;;;;;9.23;6.70;;;;;;;;;;5114234;28;20446;-54
2021/06/16 09:07:13;;;;;;;7.45;5.78;;;;;;;;;;5104047;27;20423;-53
2021/06/16 09:09:39;;;;;;;6.97;6.28;;;;;;;;;;5107577;28;20070;-55
2021/06/16 09:12:06;;;;;;;8.23;6.30;;;;;;;;;;5112375;28;20035;-53
2021/06/16 09:14:31;;;;;;;8.38;7.10;;;;;;;;;;5113447;28;20007;-53
2021/06/16 09:17:00;;;;;;;6.63;5.55;;;;;;;;;;5108689;27;20473;-53
2021/06/16 09:19:26;;;;;;;9.73;6.30;;;;;;;;;;5101781;27;20552;-56
2021/06/16 09:22:02;;;;;;;6.70;5.93;;;;;;;;;;5103834;28;20035;-53
2021/06/16 09:24:44;;;;;;;6.43;5.75;;;;;;;;;;5103177;27;20032;-54
2021/06/16 09:27:09;;;;;;;6.47;5.93;;;;;;;;;;5102701;28;20030;-54
2021/06/16 09:29:34;;;;;;;7.78;6.07;;;;;;;;;;5104700;27;20802;-56
2021/06/16 09:32:03;;;;;;;6.72;6.07;;;;;;;;;;5106882;28;20065;-54
2021/06/16 09:34:29;;;;;;;6.90;5.10;;;;;;;;;;5101919;27;20489;-56
2021/06/16 09:36:55;;;;;;;8.43;6.05;;;;;;;;;;5106505;27;20035;-55
2021/06/16 09:39:23;;;;;;;8.80;5.65;;;;;;;;;;5108579;27;20818;-56
2021/06/16 09:41:53;;;;;;;6.28;5.70;;;;;;;;;;5104471;27;20118;-55
2021/06/16 09:44:37;;;;;;;6.53;5.57;;;;;;;;;;5101360;27;20028;-53
2021/06/16 09:47:09;;;;;;;6.45;5.50;;;;;;;;;;5112674;27;20407;-57
2021/06/16 09:49:51;;;;;;;6.22;5.60;;;;;;;;;;5111127;28;20205;-53
2021/06/16 09:52:35;;;;;;;6.38;5.78;;;;;;;;;;5100302;27;20114;-54
2021/06/16 09:55:20;;;;;;;6.20;5.60;;;;;;;;;;5105621;27;20024;-55
2021/06/16 09:58:05;;;;;;;8.85;6.22;;;;;;;;;;5090599;27;20039;-54
2021/06/16 10:00:32;;;;;;;7.40;5.55;;;;;;;;;;5101451;27;20516;-54
2021/06/16 10:03:09;;;;;;;7.07;5.60;;;;;;;;;;5102331;27;20028;-55
2021/06/16 10:05:35;;;;;;;8.23;6.18;;;;;;;;;;5105281;27;20020;-52
2021/06/16 10:08:00;;;;;;;7.30;5.68;;;;;;;;;;5102181;27;20421;-55
2021/06/16 10:10:26;;;;;;;6.33;5.73;;;;;;;;;;5095429;28;20028;-55
2021/06/16 10:12:52;;;;;;;5.82;5.30;;;;;;;;;;5106825;28;20805;-56
2021/06/16 10:15:19;;;;;;;6.07;5.40;;;;;;;;;;5106685;27;20027;-53
2021/06/16 10:17:46;;;;;;;6.75;5.45;;;;;;;;;;5104217;27;20122;-54
2021/06/16 10:20:13;;;;;;;5.93;5.43;;;;;;;;;;5101105;28;20020;-53
2021/06/16 10:22:38;;;;;;;5.80;5.22;;;;;;;;;;5101902;28;20223;-54
2021/06/16 10:25:04;;;;;;;7.97;5.60;;;;;;;;;;5103045;27;20030;-56
2021/06/16 10:27:41;;;;;;;6.10;5.50;;;;;;;;;;5103832;28;20309;-57
2021/06/16 10:30:08;;;;;;;6.00;5.50;;;;;;;;;;5102027;27;20035;-55
2021/06/16 10:32:35;;;;;;;6.22;5.63;;;;;;;;;;5102624;27;20144;-56
2021/06/16 10:35:01;;;;;;;5.97;5.47;;;;;;;;;;5104421;28;20381;-57
2021/06/16 10:37:35;;;;;;;6.07;5.00;;;;;;;;;;5106794;27;20028;-55
2021/06/16 10:40:12;;;;;;;7.53;5.20;;;;;;;;;;5109255;28;20024;-56
2021/06/16 10:42:56;;;;;;;5.60;5.10;;;;;;;;;;5102146;28;20024;-57
2021/06/16 10:45:22;;;;;;;6.40;5.30;;;;;;;;;;5095360;27;20050;-56
2021/06/16 10:47:57;;;;;;;7.70;5.18;;;;;;;;;;5094650;28;20391;-54
2021/06/16 10:50:41;;;;;;;5.90;4.78;;;;;;;;;;5110562;28;20023;-55
2021/06/16 10:53:06;;;;;;;5.72;5.13;;;;;;;;;;5109968;28;20059;-55
2021/06/16 10:55:50;;;;;;;8.77;4.80;;;;;;;;;;5101601;27;20423;-56
2021/06/16 10:58:16;;;;;;;7.72;5.35;;;;;;;;;;5096784;27;20020;-56
2021/06/16 11:00:41;;;;;;;5.70;5.20;;;;;;;;;;5101127;28;20044;-53
2021/06/16 11:03:07;;;;;;;6.40;4.73;;;;;;;;;;5109756;28;20047;-56
2021/06/16 11:05:33;;;;;;;7.20;5.13;;;;;;;;;;5106647;27;20281;-57
2021/06/16 11:08:03;;;;;;;4.88;3.95;;;;;;;;;;5110858;28;20102;-56
2021/06/16 11:10:55;;;;;;;8.23;4.50;;;;;;;;;;5111074;27;20015;-56
2021/06/16 11:13:36;;;;;;;4.28;3.70;;;;;;;;;;5105803;28;20528;-57
2021/06/16 11:16:21;;;;;;;4.70;4.28;;;;;;;;;;5101939;27;20027;-55
2021/06/16 11:18:46;;;;;;;6.03;4.28;;;;;;;;;;5111661;28;20030;-53
2021/06/16 11:21:16;;;;;;;10.87;4.80;;;;;;;;;;5106719;28;20106;-56
2021/06/16 11:23:48;;;;;;;5.38;4.97;;;;;;;;;;5108883;28;20011;-57
2021/06/16 11:26:32;;;;;;;7.30;3.90;;;;;;;;;;5105336;28;20355;-55
2021/06/16 11:28:57;;;;;;;;;;;;;;;;;;5108848;28;20059;-56
2021/06/16 11:31:22;;;;;;;7.90;4.03;;;;;;;;;;5091862;28;20013;-54
2021/06/16 11:33:48;;;;;;;4.23;3.67;;;;;;;;;;5090581;28;20067;-56
2021/06/16 11:36:15;;;;;;;8.40;3.78;;;;;;;;;;5098661;27;20113;-56
2021/06/16 11:38:42;;;;;;;4.95;3.55;;;;;;;;;;5094938;28;20081;-59
2021/06/16 11:41:17;;;;;;;3.70;3.28;;;;;;;;;;5111220;28;20111;-55
2021/06/16 11:43:48;;;;;;;5.68;4.18;;;;;;;;;;5102675;28;20112;-54
2021/06/16 11:46:26;;;;;;;4.80;3.80;;;;;;;;;;5105511;28;20022;-57
2021/06/16 11:48:57;;;;;;;6.07;3.80;;;;;;;;;;5104627;28;20027;-54
2021/06/16 11:51:27;;;;;;;4.75;3.90;;;;;;;;;;5091468;28;20036;-55
2021/06/16 11:53:59;;;;;;;5.25;4.18;;;;;;;;;;5107671;28;20026;-55
2021/06/16 11:56:25;;;;;;;3.25;3.03;;;;;;;;;;5109615;28;20109;-57
2021/06/16 11:58:50;;;;;;;3.37;3.10;;;;;;;;;;5111369;28;20435;-55
2021/06/16 12:01:16;;;;;;;3.40;3.13;;;;;;;;;;5107389;28;20102;-56
2021/06/16 12:03:43;;;;;;;7.72;3.80;;;;;;;;;;5102518;28;20069;-53
2021/06/16 12:06:15;;;;;;;3.65;3.20;;;;;;;;;;5112162;28;20471;-52
2021/06/16 12:08:41;;;;;;;3.22;2.92;;;;;;;;;;5105036;28;20032;-56
2021/06/16 12:11:16;;;;;;;4.15;3.85;;;;;;;;;;5104522;27;20050;-56
2021/06/16 12:13:52;;;;;;;3.67;2.63;;;;;;;;;;5109866;28;20450;-55
2021/06/16 12:16:24;;;;;;;4.22;3.17;;;;;;;;;;5113134;27;20020;-54
2021/06/16 12:18:50;;;;;;;4.30;3.92;;;;;;;;;;5113452;27;20057;-53
2021/06/16 12:21:15;;;;;;;4.40;3.20;;;;;;;;;;5101845;28;20533;-56
2021/06/16 12:23:43;;;;;;;3.97;2.80;;;;;;;;;;5108415;27;20281;-56
2021/06/16 12:26:09;;;;;;;4.60;3.28;;;;;;;;;;5113818;28;20359;-55
2021/06/16 12:28:35;;;;;;;3.83;3.00;;;;;;;;;;5114260;28;20448;-57
2021/06/16 12:31:02;;;;;;;3.85;3.55;;;;;;;;;;5110396;27;20107;-57
2021/06/16 12:33:38;;;;;;;4.57;3.40;;;;;;;;;;5109418;28;20170;-53
2021/06/16 12:38:33;;;;;;;3.70;3.30;;;;;;;;;;5109716;28;20023;-54
2021/06/16 12:40:58;;;;;;;4.00;3.00;;;;;;;;;;5114256;28;20046;-55
2021/06/16 12:43:24;;;;;;;3.03;2.67;;;;;;;;;;5101686;28;20055;-55
2021/06/16 12:45:54;;;;;;;3.58;3.28;;;;;;;;;;5109648;27;20032;-55
2021/06/16 12:48:22;;;;;;;4.57;3.40;;;;;;;;;;5110973;27;20016;-55
2021/06/16 12:51:02;;;;;;;3.78;3.47;;;;;;;;;;5102550;27;20377;-55
2021/06/16 12:53:27;;;;;;;3.50;3.03;;;;;;;;;;5108142;27;20474;-56
2021/06/16 12:55:54;;;;;;;3.35;3.05;;;;;;;;;;5105560;27;20027;-56
2021/06/16 12:58:23;;;;;;;3.95;3.28;;;;;;;;;;5104723;27;20047;-56
2021/06/16 13:00:49;;;;;;;3.67;2.95;;;;;;;;;;5106833;27;20170;-54
2021/06/16 13:03:17;;;;;;;2.92;2.72;;;;;;;;;;5102134;27;20081;-55
2021/06/16 13:05:42;;;;;;;4.13;3.00;;;;;;;;;;5102694;27;20020;-55
2021/06/16 13:08:08;;;;;;;3.30;2.97;;;;;;;;;;5105172;27;20069;-53
2021/06/16 13:10:37;;;;;;;3.33;2.95;;;;;;;;;;5103442;27;20028;-56
2021/06/16 13:13:07;;;;;;;5.38;2.97;;;;;;;;;;5109085;27;20019;-55
2021/06/16 13:15:32;;;;;;;4.70;3.17;;;;;;;;;;5094506;28;20028;-53
2021/06/16 13:17:57;;;;;;;4.70;2.80;;;;;;;;;;5108429;28;20028;-56
2021/06/16 13:20:29;;;;;;;4.10;2.90;;;;;;;;;;5101736;27;20085;-57
2021/06/16 13:22:54;;;;;;;3.55;2.92;;;;;;;;;;5110253;27;20049;-55
2021/06/16 13:25:25;;;;;;;3.30;2.65;;;;;;;;;;5104421;27;20020;-56
2021/06/16 13:27:51;;;;;;;4.10;2.70;;;;;;;;;;5106758;28;20030;-55
2021/06/16 13:30:21;;;;;;;2.88;2.67;;;;;;;;;;5096230;28;20031;-56
2021/06/16 13:32:46;;;;;;;3.03;2.38;;;;;;;;;;5101832;28;20023;-56
2021/06/16 13:35:11;;;;;;;3.60;2.37;;;;;;;;;;5113711;28;20019;-57
2021/06/16 13:37:36;;;;;;;3.03;2.73;;;;;;;;;;5109104;28;20020;-56
2021/06/16 13:40:02;;;;;;;4.37;2.80;;;;;;;;;;5103424;28;20326;-55
2021/06/16 13:42:27;;;;;;;4.05;2.67;;;;;;;;;;5094132;28;20262;-55
2021/06/16 13:44:53;;;;;;;3.90;3.00;;;;;;;;;;5100524;28;20070;-56
2021/06/16 13:47:18;;;;;;;3.50;3.10;;;;;;;;;;5097952;28;20068;-55
2021/06/16 13:49:43;;;;;;;2.87;2.23;;;;;;;;;;5113571;28;20030;-58
2021/06/16 13:52:08;;;;;;;2.83;2.30;;;;;;;;;;5111309;28;20011;-56
2021/06/16 13:54:34;;;;;;;2.70;2.50;;;;;;;;;;5099874;28;20020;-55
2021/06/16 13:56:59;;;;;;;2.90;2.30;;;;;;;;;;5094562;28;20471;-57
2021/06/16 13:59:24;;;;;;;2.75;2.20;;;;;;;;;;5104197;28;20301;-56
2021/06/16 14:01:49;;;;;;;2.63;2.43;;;;;;;;;;5100057;28;20032;-53
2021/06/16 14:04:15;;;;;;;3.87;2.23;;;;;;;;;;5091171;28;20426;-55
2021/06/16 14:06:40;;;;;;;2.70;2.50;;;;;;;;;;5105234;28;20378;-54
2021/06/16 14:09:07;;;;;;;3.55;2.40;;;;;;;;;;5099100;28;20517;-54
2021/06/16 14:11:33;;;;;;;3.10;2.58;;;;;;;;;;5094003;28;20294;-56
2021/06/16 14:14:01;;;;;;;4.10;2.30;;;;;;;;;;5102682;28;20511;-57
2021/06/16 14:16:26;;;;;;;3.28;2.33;;;;;;;;;;5103262;28;20022;-56
2021/06/16 14:18:51;;;;;;;1.90;1.70;;;;;;;;;;5113643;28;20012;-56
2021/06/16 14:21:16;;;;;;;2.57;2.20;;;;;;;;;;5096337;28;20023;-56
2021/06/16 14:23:42;;;;;;;2.13;1.90;;;;;;;;;;5103839;28;20028;-56
2021/06/16 14:26:08;;;;;;;3.87;2.13;;;;;;;;;;5106135;28;20016;-55
2021/06/16 14:28:34;;;;;;;2.70;2.08;;;;;;;;;;5092717;28;20462;-54
2021/06/16 14:30:59;;;;;;;2.97;1.95;;;;;;;;;;5092788;28;20028;-55
2021/06/16 14:33:24;;;;;;;3.40;2.10;;;;;;;;;;5094597;28;20038;-57
2021/06/16 14:35:50;;;;;;;4.20;2.00;;;;;;;;;;5104241;28;20311;-56